aviador You're here:

KHON Decoded Metar

HURON in SD, USA
Report Time2018-05-20 22:55:00
UTC Time2018-05-20 23:20:10
Flight Rules vfr VFR
Wind020° at 04 kt
W.Decomp.*RWY 35: 3.7 kt HW 1.6 kt RCW
RWY 30: 1.2 kt HW 3.8 kt RCW
W.Rank020° ranks 20
Current wind is below 020° avg. (8.7)
Visibility9999 m
Phenomena:N/A
Clouds:Overcast 050 Hf
Expected CloudBase > 6,000 ft AGL from Temp-Dew spread
Ceiling5,000 ft
Temp17°C (ISA +5)
Dew Point02°C (37% RH)
AAT13.9°C
QNH1020 hPa
Density Alt1,680 ft
Elevation1,280 ft
Report Wrong Elevation
Raw Report
KHON 202255Z AUTO 02004KT 10SM OVC050 17/02 A3011 RMK AO2 SLP201
T01720017 $=

Extra information for KHON:More info

Metar Taf Metar & Taf Last 4 Metars F.Rules Stats Wind Profile Meteogram Temp Stats Airport Information Weather charts Add Link Nearby VenuesMetar ALERT Operation Metar Decoded Social comments

AIRNAV info for KHON